createdAt,value
2018-01-20T00:01:05.955Z,0.40
2018-01-20T00:03:32.248Z,0.40
2018-01-20T00:05:58.613Z,0.40
2018-01-20T00:08:24.968Z,0.40
2018-01-20T00:11:03.752Z,0.40
2018-01-20T00:13:30.859Z,0.40
2018-01-20T00:15:57.217Z,0.40
2018-01-20T00:18:23.531Z,0.40
2018-01-20T00:20:49.895Z,0.40
2018-01-20T00:23:16.932Z,0.50
2018-01-20T00:25:50.204Z,0.40
2018-01-20T00:28:16.487Z,0.40
2018-01-20T00:30:42.868Z,0.40
2018-01-20T00:33:09.175Z,0.40
2018-01-20T00:35:35.547Z,0.40
2018-01-20T00:38:02.604Z,0.40
2018-01-20T00:40:29.659Z,0.40
2018-01-20T00:42:56.699Z,0.50
2018-01-20T00:45:23.792Z,0.40
2018-01-20T00:47:50.117Z,0.40
2018-01-20T00:50:16.464Z,0.40
2018-01-20T00:52:42.803Z,0.40
2018-01-20T00:55:09.172Z,0.40
2018-01-20T00:57:36.195Z,0.40
2018-01-20T01:00:02.609Z,0.40
2018-01-20T01:02:28.896Z,0.40
2018-01-20T01:04:55.256Z,0.40
2018-01-20T01:07:21.581Z,0.40
2018-01-20T01:09:47.972Z,0.40
2018-01-20T01:12:14.989Z,0.40
2018-01-20T01:14:41.364Z,0.40
2018-01-20T01:17:07.676Z,0.40
2018-01-20T01:19:34.761Z,0.40
2018-01-20T01:22:01.087Z,0.50
2018-01-20T01:24:28.220Z,0.40
2018-01-20T01:26:55.295Z,0.60
2018-01-20T01:29:21.680Z,0.40
2018-01-20T01:31:48.720Z,0.40
2018-01-20T01:34:15.087Z,0.40
2018-01-20T01:36:41.410Z,0.40
2018-01-20T01:39:07.777Z,0.40
2018-01-20T01:41:34.098Z,0.40
2018-01-20T01:44:00.466Z,0.40
2018-01-20T01:46:26.783Z,0.40
2018-01-20T01:48:53.167Z,0.40
2018-01-20T01:51:19.472Z,0.40
2018-01-20T01:53:45.862Z,0.40
2018-01-20T01:56:12.172Z,0.40
2018-01-20T01:58:38.526Z,0.40
2018-01-20T02:01:04.906Z,0.40
2018-01-20T02:03:32.037Z,0.40
2018-01-20T02:05:58.367Z,0.40
2018-01-20T02:08:24.767Z,0.40
2018-01-20T02:10:51.069Z,0.40
2018-01-20T02:13:17.412Z,0.40
2018-01-20T02:15:43.747Z,0.40
2018-01-20T02:18:10.114Z,0.40
2018-01-20T02:20:36.452Z,0.40
2018-01-20T02:23:02.807Z,0.40
2018-01-20T02:25:29.832Z,0.40
2018-01-20T02:27:56.924Z,0.40
2018-01-20T02:30:23.245Z,0.40
2018-01-20T02:32:49.612Z,0.40
2018-01-20T02:35:15.936Z,0.40
2018-01-20T02:37:42.292Z,0.40
2018-01-20T02:40:09.335Z,0.40
2018-01-20T02:42:36.471Z,0.40
2018-01-20T02:45:02.824Z,0.40
2018-01-20T02:47:34.449Z,0.40
2018-01-20T02:50:00.767Z,0.40
2018-01-20T02:52:27.123Z,0.40
2018-01-20T02:54:53.463Z,0.40
2018-01-20T02:57:19.845Z,0.40
2018-01-20T02:59:46.160Z,0.40
2018-01-20T03:02:13.220Z,0.40
2018-01-20T03:04:40.296Z,0.40
2018-01-20T03:07:06.633Z,0.50
2018-01-20T03:09:32.979Z,0.40
2018-01-20T03:11:59.327Z,0.40
2018-01-20T03:14:25.652Z,0.40
2018-01-20T03:16:52.019Z,0.40
2018-01-20T03:19:19.064Z,0.40
2018-01-20T03:21:46.154Z,1.07
2018-01-20T03:24:12.819Z,0.40
2018-01-20T03:26:39.144Z,0.40
2018-01-20T03:29:05.476Z,0.40
2018-01-20T03:31:31.832Z,0.40
2018-01-20T03:33:58.875Z,0.40
2018-01-20T03:36:25.953Z,0.40
2018-01-20T03:38:52.268Z,0.40
2018-01-20T03:41:19.360Z,0.40
2018-01-20T03:43:45.670Z,0.40
2018-01-20T03:49:06.659Z,0.40
2018-01-20T03:51:33.123Z,0.40
2018-01-20T03:53:59.552Z,0.40
2018-01-20T03:56:25.997Z,0.50
2018-01-20T03:58:52.446Z,0.40
2018-01-20T04:01:18.895Z,0.40
2018-01-20T04:03:45.476Z,0.40
2018-01-20T04:06:12.056Z,0.40
2018-01-20T04:08:39.280Z,0.40
2018-01-20T04:11:05.721Z,0.40
2018-01-20T04:13:32.103Z,0.40
2018-01-20T04:15:58.628Z,0.40
2018-01-20T04:18:25.040Z,0.40
2018-01-20T04:20:51.504Z,0.40
2018-01-20T04:23:17.982Z,0.40
2018-01-20T04:25:44.439Z,0.40
2018-01-20T04:28:10.951Z,0.40
2018-01-20T04:30:37.408Z,0.40
2018-01-20T04:33:03.829Z,0.40
2018-01-20T04:35:30.300Z,0.40
2018-01-20T04:37:57.639Z,0.40
2018-01-20T04:40:24.110Z,0.50
2018-01-20T04:42:50.583Z,0.40
2018-01-20T04:45:17.061Z,0.40
2018-01-20T04:47:44.245Z,0.40
2018-01-20T04:50:10.711Z,0.40
2018-01-20T04:52:37.188Z,0.40
2018-01-20T04:55:03.636Z,0.40
2018-01-20T04:57:30.864Z,0.40
2018-01-20T04:59:57.323Z,0.40
2018-01-20T05:02:23.720Z,0.40
2018-01-20T05:04:50.967Z,0.40
2018-01-20T05:07:17.471Z,0.93
2018-01-20T05:09:43.969Z,0.40
2018-01-20T05:12:10.459Z,0.40
2018-01-20T05:14:36.896Z,0.40
2018-01-20T05:17:03.412Z,0.40
2018-01-20T05:19:29.971Z,0.40
2018-01-20T05:21:56.464Z,0.40
2018-01-20T05:24:22.962Z,0.40
2018-01-20T05:26:49.473Z,0.40
2018-01-20T05:29:15.932Z,0.40
2018-01-20T05:31:42.373Z,0.40
2018-01-20T05:34:08.824Z,0.40
2018-01-20T05:36:35.245Z,0.40
2018-01-20T05:39:01.732Z,1.70
2018-01-20T05:41:28.265Z,0.50
2018-01-20T05:43:54.701Z,0.70
2018-01-20T05:46:21.131Z,0.40
2018-01-20T05:48:47.653Z,0.40
2018-01-20T05:51:14.297Z,0.40
2018-01-20T05:53:41.496Z,0.40
2018-01-20T05:56:07.976Z,0.40
2018-01-20T05:58:34.408Z,0.40
2018-01-20T06:01:00.876Z,0.50
2018-01-20T06:03:27.309Z,0.40
2018-01-20T06:05:53.784Z,0.50
2018-01-20T06:08:20.221Z,0.50
2018-01-20T06:10:46.650Z,0.93
2018-01-20T06:13:13.078Z,0.40
2018-01-20T06:15:39.567Z,0.40
2018-01-20T06:18:05.985Z,0.40
2018-01-20T06:20:32.479Z,0.40
2018-01-20T06:22:58.869Z,0.40
2018-01-20T06:25:25.332Z,0.40
2018-01-20T06:27:51.801Z,0.40
2018-01-20T06:30:18.257Z,0.40
2018-01-20T06:32:44.647Z,0.40
2018-01-20T06:35:11.120Z,0.40
2018-01-20T06:37:37.564Z,0.40
2018-01-20T06:40:04.020Z,0.40
2018-01-20T06:42:30.456Z,0.40
2018-01-20T06:44:56.969Z,0.40
2018-01-20T06:47:23.443Z,0.40
2018-01-20T06:49:49.919Z,0.40
2018-01-20T06:52:16.344Z,0.40
2018-01-20T06:54:42.825Z,0.40
2018-01-20T06:57:09.295Z,0.40
2018-01-20T06:59:35.704Z,0.40
2018-01-20T07:02:02.174Z,0.40
2018-01-20T07:04:28.599Z,0.40
2018-01-20T07:06:55.065Z,0.40
2018-01-20T07:09:21.588Z,0.40
2018-01-20T07:11:48.061Z,0.40
2018-01-20T07:14:14.504Z,0.40
2018-01-20T07:16:40.983Z,0.50
2018-01-20T07:19:08.202Z,0.40
2018-01-20T07:21:34.576Z,0.40
2018-01-20T07:24:01.100Z,0.40
2018-01-20T07:26:27.536Z,0.50
2018-01-20T07:28:53.989Z,0.40
2018-01-20T07:31:20.405Z,0.60
2018-01-20T07:33:47.616Z,0.40
2018-01-20T07:36:14.021Z,0.40
2018-01-20T07:38:41.244Z,0.50
2018-01-20T07:41:07.633Z,2.37
2018-01-20T07:43:34.134Z,0.40
2018-01-20T07:46:00.671Z,0.40
2018-01-20T07:48:27.092Z,0.40
2018-01-20T07:50:53.580Z,0.40
2018-01-20T07:53:19.997Z,0.40
2018-01-20T07:55:46.420Z,1.40
2018-01-20T07:58:12.904Z,0.40
2018-01-20T08:00:39.315Z,0.40
2018-01-20T08:03:05.784Z,0.40
2018-01-20T08:05:32.264Z,0.40
2018-01-20T08:07:58.849Z,0.40
2018-01-20T08:10:25.321Z,0.50
2018-01-20T08:12:51.787Z,0.40
2018-01-20T08:15:18.250Z,0.50
2018-01-20T08:17:44.809Z,0.40
2018-01-20T08:20:11.328Z,0.40
2018-01-20T08:22:37.800Z,0.40
2018-01-20T08:25:04.200Z,0.40
2018-01-20T08:27:30.621Z,0.40
2018-01-20T08:29:57.107Z,1.30
2018-01-20T08:32:23.568Z,0.40
2018-01-20T08:34:50.011Z,0.40
2018-01-20T08:37:16.461Z,0.93
2018-01-20T08:39:42.892Z,0.50
2018-01-20T08:42:09.393Z,0.40
2018-01-20T08:44:35.928Z,0.40
2018-01-20T08:47:02.484Z,0.40
2018-01-20T08:49:28.992Z,1.43
2018-01-20T08:51:55.456Z,0.40
2018-01-20T08:54:21.912Z,0.40
2018-01-20T08:56:48.368Z,0.40
2018-01-20T08:59:14.805Z,0.40
2018-01-20T09:01:41.283Z,0.40
2018-01-20T09:04:07.792Z,0.40
2018-01-20T09:06:34.580Z,0.40
2018-01-20T09:09:01.096Z,0.40
2018-01-20T09:11:27.508Z,0.40
2018-01-20T09:13:53.994Z,0.40
2018-01-20T09:16:20.552Z,0.40
2018-01-20T09:18:47.802Z,0.40
2018-01-20T09:21:14.293Z,0.40
2018-01-20T09:23:40.812Z,0.40
2018-01-20T09:26:07.257Z,0.40
2018-01-20T09:28:33.684Z,0.50
2018-01-20T09:31:00.136Z,0.40
2018-01-20T09:33:26.631Z,0.40
2018-01-20T09:35:53.115Z,0.40
2018-01-20T09:38:19.597Z,0.40
2018-01-20T09:40:45.983Z,0.40
2018-01-20T09:43:13.284Z,0.50
2018-01-20T09:45:39.772Z,0.47
2018-01-20T09:48:06.297Z,0.40
2018-01-20T09:50:32.736Z,1.37
2018-01-20T09:52:59.212Z,0.40
2018-01-20T09:55:25.646Z,0.40
2018-01-20T09:57:52.107Z,0.40
2018-01-20T10:00:18.569Z,0.40
2018-01-20T10:02:45.141Z,0.40
2018-01-20T10:05:11.544Z,0.40
2018-01-20T10:07:37.999Z,0.40
2018-01-20T10:10:04.645Z,0.40
2018-01-20T10:12:31.089Z,0.40
2018-01-20T10:14:57.520Z,0.40
2018-01-20T10:17:23.982Z,0.40
2018-01-20T10:19:50.423Z,0.50
2018-01-20T10:22:16.873Z,0.40
2018-01-20T10:24:43.364Z,0.40
2018-01-20T10:27:10.592Z,0.40
2018-01-20T10:29:37.086Z,0.50
2018-01-20T10:32:04.341Z,0.40
2018-01-20T10:34:31.564Z,0.40
2018-01-20T10:36:57.989Z,0.40
2018-01-20T10:39:24.457Z,0.50
2018-01-20T10:41:50.899Z,0.47
2018-01-20T10:44:17.380Z,0.87
2018-01-20T10:46:43.887Z,2.83
2018-01-20T10:49:10.345Z,0.50
2018-01-20T10:51:36.816Z,0.40
2018-01-20T10:54:03.241Z,0.40
2018-01-20T10:56:29.660Z,0.40
2018-01-20T10:58:56.154Z,4.77
2018-01-20T11:01:22.662Z,0.40
2018-01-20T11:03:49.189Z,0.40
2018-01-20T11:06:16.375Z,0.40
2018-01-20T11:08:42.872Z,0.40
2018-01-20T11:11:09.260Z,0.40
2018-01-20T11:13:35.777Z,0.40
2018-01-20T11:16:02.294Z,0.40
2018-01-20T11:18:28.780Z,0.40
2018-01-20T11:20:56.024Z,0.50
2018-01-20T11:23:22.481Z,0.40
2018-01-20T11:25:48.968Z,0.50
2018-01-20T11:28:16.221Z,0.40
2018-01-20T11:30:43.446Z,0.73
2018-01-20T11:33:09.920Z,0.40
2018-01-20T11:35:36.417Z,0.40
2018-01-20T11:38:02.868Z,0.50
2018-01-20T11:40:29.381Z,0.40
2018-01-20T11:42:56.523Z,0.40
2018-01-20T11:45:23.023Z,0.50
2018-01-20T11:47:49.524Z,0.40
2018-01-20T11:50:16.812Z,0.40
2018-01-20T11:52:44.028Z,0.40
2018-01-20T11:55:10.479Z,0.60
2018-01-20T11:57:37.760Z,0.40
2018-01-20T12:00:04.312Z,0.40
2018-01-20T12:02:30.836Z,0.50
2018-01-20T12:04:57.288Z,0.40
2018-01-20T12:07:23.759Z,0.40
2018-01-20T12:09:50.276Z,1.73
2018-01-20T12:12:16.739Z,0.40
2018-01-20T12:14:43.160Z,0.40
2018-01-20T12:17:09.634Z,2.00
2018-01-20T12:19:36.105Z,0.40
2018-01-20T12:22:02.642Z,0.40
2018-01-20T12:24:29.156Z,0.40
2018-01-20T12:26:55.681Z,0.40
2018-01-20T12:29:22.148Z,0.40
2018-01-20T12:31:48.637Z,0.40
2018-01-20T12:34:15.168Z,0.40
2018-01-20T12:36:41.656Z,0.40
2018-01-20T12:39:09.961Z,0.40
2018-01-20T12:41:37.208Z,0.40
2018-01-20T12:44:03.759Z,0.40
2018-01-20T12:46:31.024Z,0.40
2018-01-20T12:48:57.545Z,0.40
2018-01-20T12:51:24.888Z,0.40
2018-01-20T12:53:51.324Z,0.50
2018-01-20T12:56:17.776Z,0.40
2018-01-20T12:58:44.275Z,0.40
2018-01-20T13:01:10.807Z,0.40
2018-01-20T13:03:37.276Z,0.40
2018-01-20T13:06:04.476Z,0.40
2018-01-20T13:08:30.964Z,0.40
2018-01-20T13:10:57.380Z,0.40
2018-01-20T13:13:23.910Z,17.83
2018-01-20T13:15:50.388Z,12.13
2018-01-20T13:18:16.842Z,20.30
2018-01-20T13:20:43.239Z,19.30
2018-01-20T13:23:09.768Z,17.93
2018-01-20T13:25:36.272Z,15.10
2018-01-20T13:28:02.777Z,17.90
2018-01-20T13:30:29.299Z,18.47
2018-01-20T13:32:55.752Z,13.70
2018-01-20T13:35:22.185Z,19.80
2018-01-20T13:37:48.636Z,26.47
2018-01-20T13:40:15.093Z,21.37
2018-01-20T13:42:41.548Z,17.17
2018-01-20T13:45:08.823Z,16.67
2018-01-20T13:47:35.248Z,14.23
2018-01-20T13:50:01.684Z,14.57
2018-01-20T13:52:28.164Z,13.13
2018-01-20T13:54:54.671Z,12.90
2018-01-20T13:57:21.099Z,14.43
2018-01-20T13:59:48.307Z,13.20
2018-01-20T14:02:14.767Z,16.30
2018-01-20T14:04:41.285Z,13.37
2018-01-20T14:07:07.712Z,12.87
2018-01-20T14:09:34.125Z,16.13
2018-01-20T14:12:01.345Z,13.80
2018-01-20T14:14:27.815Z,11.77
2018-01-20T14:16:54.257Z,18.30
2018-01-20T14:19:20.689Z,17.60
2018-01-20T14:21:47.156Z,24.17
2018-01-20T14:24:13.571Z,16.70
2018-01-20T14:26:41.106Z,18.23
2018-01-20T14:29:08.333Z,13.10
2018-01-20T14:31:34.776Z,11.80
2018-01-20T14:34:01.234Z,20.30
2018-01-20T14:36:28.483Z,14.63
2018-01-20T14:38:55.929Z,23.47
2018-01-20T14:41:22.387Z,19.53
2018-01-20T14:43:49.568Z,19.10
2018-01-20T14:46:16.826Z,17.83
2018-01-20T14:48:43.306Z,18.70
2018-01-20T14:51:10.761Z,13.10
2018-01-20T14:53:37.201Z,16.27
2018-01-20T14:56:03.680Z,20.03
2018-01-20T14:58:30.181Z,13.13
2018-01-20T15:00:56.682Z,13.13
2018-01-20T15:03:23.184Z,20.00
2018-01-20T15:05:49.696Z,22.10
2018-01-20T15:08:16.875Z,13.60
2018-01-20T15:10:44.109Z,17.03
2018-01-20T15:13:10.633Z,13.53
2018-01-20T15:15:37.888Z,12.57
2018-01-20T15:18:04.344Z,12.67
2018-01-20T15:20:30.800Z,14.07
2018-01-20T15:22:57.200Z,18.20
2018-01-20T15:25:23.729Z,17.40
2018-01-20T15:27:50.908Z,16.53
2018-01-20T15:30:17.405Z,12.40
2018-01-20T15:32:43.804Z,14.87
2018-01-20T15:35:10.988Z,14.63
2018-01-20T15:37:37.405Z,21.20
2018-01-20T15:40:05.516Z,16.80
2018-01-20T15:42:31.974Z,12.90
2018-01-20T15:44:58.449Z,11.00
2018-01-20T15:47:24.895Z,12.93
2018-01-20T15:49:51.328Z,9.70
2018-01-20T15:52:17.752Z,15.67
2018-01-20T15:54:44.225Z,11.60
2018-01-20T15:57:10.661Z,13.00
2018-01-20T15:59:37.140Z,11.80
2018-01-20T16:02:03.600Z,11.60
2018-01-20T16:04:30.035Z,9.40
2018-01-20T16:06:56.437Z,12.90
2018-01-20T16:09:22.856Z,10.23
2018-01-20T16:11:49.301Z,14.57
2018-01-20T16:14:16.499Z,21.03
2018-01-20T16:16:42.916Z,21.97
2018-01-20T16:19:10.106Z,25.40
2018-01-20T16:21:36.524Z,14.63
2018-01-20T16:24:05.631Z,14.47
2018-01-20T16:26:32.882Z,9.50
2018-01-20T16:28:59.395Z,12.40
2018-01-20T16:31:27.441Z,13.57
2018-01-20T16:33:53.912Z,10.43
2018-01-20T16:36:20.547Z,13.43
2018-01-20T16:38:47.876Z,13.27
2018-01-20T16:41:14.362Z,21.97
2018-01-20T16:43:41.655Z,16.90
2018-01-20T16:46:08.151Z,16.40
2018-01-20T16:48:34.728Z,13.93
2018-01-20T16:51:01.920Z,10.53
2018-01-20T16:53:28.463Z,11.30
2018-01-20T16:55:56.734Z,14.00
2018-01-20T17:01:28.876Z,15.70
2018-01-20T17:03:55.155Z,12.80
2018-01-20T17:06:21.440Z,9.43
2018-01-20T17:08:47.745Z,11.67
2018-01-20T17:11:14.751Z,12.87
2018-01-20T17:13:41.036Z,15.13
2018-01-20T17:16:07.308Z,16.60
2018-01-20T17:18:33.716Z,14.43
2018-01-20T17:20:59.990Z,18.70
2018-01-20T17:23:26.288Z,15.70
2018-01-20T17:25:52.551Z,10.83
2018-01-20T17:28:18.832Z,15.60
2018-01-20T17:30:45.092Z,15.30
2018-01-20T17:33:11.373Z,18.10
2018-01-20T17:35:37.644Z,13.60
2018-01-20T17:38:03.949Z,17.70
2018-01-20T17:40:30.216Z,19.73
2018-01-20T17:42:56.531Z,17.80
2018-01-20T17:45:22.831Z,15.53
2018-01-20T17:47:49.121Z,20.30
2018-01-20T17:50:15.488Z,20.50
2018-01-20T17:52:41.799Z,16.40
2018-01-20T17:55:08.828Z,14.43
2018-01-20T17:57:35.137Z,15.50
2018-01-20T18:00:01.416Z,21.90
2018-01-20T18:02:27.716Z,18.33
2018-01-20T18:04:53.975Z,18.93
2018-01-20T18:07:21.008Z,19.53
2018-01-20T18:09:48.068Z,21.43
2018-01-20T18:12:15.233Z,18.63
2018-01-20T18:14:41.492Z,18.90
2018-01-20T18:17:07.857Z,18.17
2018-01-20T18:19:34.170Z,23.10
2018-01-20T18:22:00.544Z,19.80
2018-01-20T18:24:26.877Z,22.90
2018-01-20T18:26:53.196Z,23.13
2018-01-20T18:29:20.232Z,20.00
2018-01-20T18:31:47.248Z,20.50
2018-01-20T18:34:13.520Z,27.57
2018-01-20T18:36:40.641Z,24.47
2018-01-20T18:39:06.952Z,31.13
2018-01-20T18:41:33.331Z,27.60
2018-01-20T18:43:59.635Z,22.70
2018-01-20T18:46:25.937Z,26.63
2018-01-20T18:48:52.192Z,21.33
2018-01-20T18:51:18.498Z,21.07
2018-01-20T18:53:44.764Z,18.27
2018-01-20T18:56:11.076Z,18.23
2018-01-20T18:58:37.357Z,21.67
2018-01-20T19:01:03.689Z,18.80
2018-01-20T19:03:29.973Z,16.17
2018-01-20T19:05:56.260Z,19.00
2018-01-20T19:08:22.528Z,16.07
2018-01-20T19:10:48.820Z,17.50
2018-01-20T19:13:15.089Z,19.43
2018-01-20T19:15:41.371Z,23.17
2018-01-20T19:18:07.680Z,22.47
2018-01-20T19:20:34.712Z,19.37
2018-01-20T19:23:01.777Z,21.97
2018-01-20T19:25:28.064Z,16.73
2018-01-20T19:27:54.345Z,14.70
2018-01-20T19:30:20.635Z,14.97
2018-01-20T19:32:46.911Z,21.37
2018-01-20T19:35:13.196Z,15.67
2018-01-20T19:37:39.470Z,21.17
2018-01-20T19:40:05.821Z,19.67
2018-01-20T19:42:32.103Z,19.67
2018-01-20T19:44:59.124Z,26.50
2018-01-20T19:47:25.404Z,21.97
2018-01-20T19:49:51.751Z,22.60
2018-01-20T19:52:18.064Z,19.60
2018-01-20T19:54:44.357Z,20.90
2018-01-20T19:57:10.750Z,22.73
2018-01-20T19:59:37.063Z,17.87
2018-01-20T20:02:03.420Z,19.80
2018-01-20T20:04:29.723Z,24.27
2018-01-20T20:06:56.008Z,26.93
2018-01-20T20:09:22.312Z,24.83
2018-01-20T20:11:48.640Z,25.43
2018-01-20T20:14:14.910Z,21.80
2018-01-20T20:16:41.939Z,19.90
2018-01-20T20:19:08.235Z,21.40
2018-01-20T20:21:34.629Z,26.23
2018-01-20T20:24:01.624Z,23.97
2018-01-20T20:26:27.911Z,23.93
2018-01-20T20:28:54.164Z,21.80
2018-01-20T20:31:20.452Z,38.13
2018-01-20T20:33:47.559Z,23.73
2018-01-20T20:36:13.852Z,28.67
2018-01-20T20:38:40.169Z,30.73
2018-01-20T20:41:07.204Z,24.37
2018-01-20T20:43:33.507Z,21.83
2018-01-20T20:45:59.867Z,25.67
2018-01-20T20:48:26.899Z,26.90
2018-01-20T20:50:54.197Z,26.23
2018-01-20T20:53:20.487Z,26.50
2018-01-20T20:55:46.760Z,28.13
2018-01-20T20:58:13.035Z,23.97
2018-01-20T21:00:39.304Z,26.97
2018-01-20T21:03:05.684Z,20.37
2018-01-20T21:05:31.948Z,23.43
2018-01-20T21:07:58.980Z,29.77
2018-01-20T21:10:25.289Z,24.33
2018-01-20T21:12:51.602Z,20.27
2018-01-20T21:15:17.872Z,21.37
2018-01-20T21:17:44.168Z,26.50
2018-01-20T21:20:10.424Z,27.80
2018-01-20T21:22:36.711Z,26.00
2018-01-20T21:25:03.010Z,27.17
2018-01-20T21:27:30.062Z,36.73
2018-01-20T21:29:57.066Z,26.93
2018-01-20T21:32:23.364Z,19.33
2018-01-20T21:34:49.632Z,29.00
2018-01-20T21:37:15.925Z,28.97
2018-01-20T21:39:42.196Z,31.30
2018-01-20T21:42:09.976Z,25.50
2018-01-20T21:44:41.151Z,28.17
2018-01-20T21:47:07.435Z,33.42
2018-01-20T21:49:33.705Z,30.30
2018-01-20T21:52:00.024Z,26.10
2018-01-20T21:54:27.044Z,22.73
2018-01-20T21:56:53.318Z,19.10
2018-01-20T21:59:19.591Z,23.17
2018-01-20T22:01:46.635Z,22.63
2018-01-20T22:04:12.919Z,23.23
2018-01-20T22:06:39.179Z,23.23
2018-01-20T22:09:05.497Z,25.03
2018-01-20T22:11:31.786Z,28.23
2018-01-20T22:13:58.827Z,21.93
2018-01-20T22:16:25.086Z,24.23
2018-01-20T22:18:51.371Z,21.30
2018-01-20T22:21:17.664Z,18.00
2018-01-20T22:23:43.964Z,23.30
2018-01-20T22:26:10.972Z,24.80
2018-01-20T22:28:37.260Z,20.88
2018-01-20T22:31:03.524Z,23.93
2018-01-20T22:33:29.815Z,20.70
2018-01-20T22:35:56.085Z,17.80
2018-01-20T22:38:22.377Z,18.63
2018-01-20T22:40:48.643Z,21.00
2018-01-20T22:43:14.964Z,19.10
2018-01-20T22:45:41.239Z,22.63
2018-01-20T22:48:08.268Z,32.80
2018-01-20T22:50:34.578Z,29.13
2018-01-20T22:53:00.903Z,24.57
2018-01-20T22:55:27.207Z,22.20
2018-01-20T22:57:53.509Z,26.87
2018-01-20T23:00:20.567Z,24.27
2018-01-20T23:02:46.848Z,27.17
2018-01-20T23:05:13.152Z,31.30
2018-01-20T23:07:39.436Z,33.67
2018-01-20T23:10:06.482Z,24.77
2018-01-20T23:12:33.571Z,25.20
2018-01-20T23:14:59.840Z,24.30
2018-01-20T23:17:26.184Z,20.17
2018-01-20T23:19:52.469Z,23.23
2018-01-20T23:22:18.760Z,23.20
2018-01-20T23:24:45.768Z,28.20
2018-01-20T23:27:12.080Z,29.73
2018-01-20T23:29:38.360Z,23.47
2018-01-20T23:32:05.424Z,25.67
2018-01-20T23:34:32.428Z,24.60
2018-01-20T23:36:58.712Z,28.97
2018-01-20T23:39:24.991Z,25.03
2018-01-20T23:41:51.380Z,20.20
2018-01-20T23:44:17.705Z,30.27
2018-01-20T23:46:44.120Z,30.90
2018-01-20T23:49:11.187Z,28.57
2018-01-20T23:51:37.463Z,20.30
2018-01-20T23:54:03.823Z,26.83
2018-01-20T23:56:30.865Z,23.87
2018-01-20T23:58:57.928Z,26.93
